sensor_id;sensor_type;location;lat;lon;timestamp;temperature;humidity
16767;DHT22;8501;49.926;8.404;2023-02-15T00:01:08;2.50;99.90
16767;DHT22;8501;49.926;8.404;2023-02-15T00:03:34;2.50;99.90
16767;DHT22;8501;49.926;8.404;2023-02-15T00:06:00;2.50;99.90
16767;DHT22;8501;49.926;8.404;2023-02-15T00:08:26;2.50;99.90
16767;DHT22;8501;49.926;8.404;2023-02-15T00:10:51;2.50;99.90
16767;DHT22;8501;49.926;8.404;2023-02-15T00:13:17;2.50;99.90
16767;DHT22;8501;49.926;8.404;2023-02-15T00:15:42;2.50;99.90
16767;DHT22;8501;49.926;8.404;2023-02-15T00:18:08;2.50;99.90
16767;DHT22;8501;49.926;8.404;2023-02-15T00:20:34;2.50;99.90
16767;DHT22;8501;49.926;8.404;2023-02-15T00:23:00;2.50;99.90
16767;DHT22;8501;49.926;8.404;2023-02-15T00:25:26;2.50;99.90
16767;DHT22;8501;49.926;8.404;2023-02-15T00:27:51;2.50;99.90
16767;DHT22;8501;49.926;8.404;2023-02-15T00:30:17;2.50;99.90
16767;DHT22;8501;49.926;8.404;2023-02-15T00:32:42;2.50;99.90
16767;DHT22;8501;49.926;8.404;2023-02-15T00:35:08;2.50;99.90
16767;DHT22;8501;49.926;8.404;2023-02-15T00:37:35;2.50;99.90
16767;DHT22;8501;49.926;8.404;2023-02-15T00:40:01;2.50;99.90
16767;DHT22;8501;49.926;8.404;2023-02-15T00:42:26;2.50;99.90
16767;DHT22;8501;49.926;8.404;2023-02-15T00:44:52;2.50;99.90
16767;DHT22;8501;49.926;8.404;2023-02-15T00:47:17;2.50;99.90
16767;DHT22;8501;49.926;8.404;2023-02-15T00:49:43;2.50;99.90
16767;DHT22;8501;49.926;8.404;2023-02-15T00:52:08;2.40;99.90
16767;DHT22;8501;49.926;8.404;2023-02-15T00:54:34;2.40;99.90
16767;DHT22;8501;49.926;8.404;2023-02-15T00:57:00;2.50;99.90
16767;DHT22;8501;49.926;8.404;2023-02-15T00:59:26;2.40;99.90
16767;DHT22;8501;49.926;8.404;2023-02-15T01:01:51;2.40;99.90
16767;DHT22;8501;49.926;8.404;2023-02-15T01:04:17;2.40;99.90
16767;DHT22;8501;49.926;8.404;2023-02-15T01:06:43;2.40;99.90
16767;DHT22;8501;49.926;8.404;2023-02-15T01:09:08;2.50;99.90
16767;DHT22;8501;49.926;8.404;2023-02-15T01:11:34;2.40;99.90
16767;DHT22;8501;49.926;8.404;2023-02-15T01:13:59;2.40;99.90
16767;DHT22;8501;49.926;8.404;2023-02-15T01:16:27;2.40;99.90
16767;DHT22;8501;49.926;8.404;2023-02-15T01:18:53;2.40;99.90
16767;DHT22;8501;49.926;8.404;2023-02-15T01:21:22;2.40;99.90
16767;DHT22;8501;49.926;8.404;2023-02-15T01:23:48;2.40;99.90
16767;DHT22;8501;49.926;8.404;2023-02-15T01:26:14;2.40;99.90
16767;DHT22;8501;49.926;8.404;2023-02-15T01:28:40;2.40;99.90
16767;DHT22;8501;49.926;8.404;2023-02-15T01:31:07;2.40;99.90
16767;DHT22;8501;49.926;8.404;2023-02-15T01:33:33;2.40;99.90
16767;DHT22;8501;49.926;8.404;2023-02-15T01:35:59;2.40;99.90
16767;DHT22;8501;49.926;8.404;2023-02-15T01:38:24;2.40;99.90
16767;DHT22;8501;49.926;8.404;2023-02-15T01:40:53;2.30;99.90
16767;DHT22;8501;49.926;8.404;2023-02-15T01:43:19;2.40;99.90
16767;DHT22;8501;49.926;8.404;2023-02-15T01:45:47;2.40;99.90
16767;DHT22;8501;49.926;8.404;2023-02-15T01:48:20;2.40;99.90
16767;DHT22;8501;49.926;8.404;2023-02-15T01:50:52;2.40;99.90
16767;DHT22;8501;49.926;8.404;2023-02-15T01:53:27;2.40;99.90
16767;DHT22;8501;49.926;8.404;2023-02-15T01:56:00;2.40;99.90
16767;DHT22;8501;49.926;8.404;2023-02-15T01:58:28;2.40;99.90
16767;DHT22;8501;49.926;8.404;2023-02-15T02:00:56;2.40;99.90
16767;DHT22;8501;49.926;8.404;2023-02-15T02:03:34;2.40;99.90
16767;DHT22;8501;49.926;8.404;2023-02-15T02:06:02;2.40;99.90
16767;DHT22;8501;49.926;8.404;2023-02-15T02:08:28;2.40;99.90
16767;DHT22;8501;49.926;8.404;2023-02-15T02:10:53;2.30;99.90
16767;DHT22;8501;49.926;8.404;2023-02-15T02:13:19;2.40;99.90
16767;DHT22;8501;49.926;8.404;2023-02-15T02:15:55;2.30;99.90
16767;DHT22;8501;49.926;8.404;2023-02-15T02:21:50;2.20;99.90
16767;DHT22;8501;49.926;8.404;2023-02-15T02:27:12;2.20;99.90
16767;DHT22;8501;49.926;8.404;2023-02-15T02:32:52;2.20;99.90
16767;DHT22;8501;49.926;8.404;2023-02-15T02:35:33;2.20;99.90
16767;DHT22;8501;49.926;8.404;2023-02-15T02:43:28;2.30;99.90
16767;DHT22;8501;49.926;8.404;2023-02-15T02:46:09;2.30;99.90
16767;DHT22;8501;49.926;8.404;2023-02-15T02:48:38;2.30;99.90
16767;DHT22;8501;49.926;8.404;2023-02-15T02:51:04;2.30;99.90
16767;DHT22;8501;49.926;8.404;2023-02-15T02:53:31;2.30;99.90
16767;DHT22;8501;49.926;8.404;2023-02-15T02:56:06;2.30;99.90
16767;DHT22;8501;49.926;8.404;2023-02-15T02:58:46;2.30;99.90
16767;DHT22;8501;49.926;8.404;2023-02-15T03:01:27;2.30;99.90
16767;DHT22;8501;49.926;8.404;2023-02-15T03:04:15;2.30;99.90
16767;DHT22;8501;49.926;8.404;2023-02-15T03:06:48;2.30;99.90
16767;DHT22;8501;49.926;8.404;2023-02-15T03:11:48;2.20;99.90
16767;DHT22;8501;49.926;8.404;2023-02-15T03:14:15;2.20;99.90
16767;DHT22;8501;49.926;8.404;2023-02-15T03:16:45;2.10;99.90
16767;DHT22;8501;49.926;8.404;2023-02-15T03:19:25;2.20;99.90
16767;DHT22;8501;49.926;8.404;2023-02-15T03:21:56;2.20;99.90
16767;DHT22;8501;49.926;8.404;2023-02-15T03:24:35;2.20;99.90
16767;DHT22;8501;49.926;8.404;2023-02-15T03:27:07;2.30;99.90
16767;DHT22;8501;49.926;8.404;2023-02-15T03:29:37;2.30;99.90
16767;DHT22;8501;49.926;8.404;2023-02-15T03:32:05;2.20;99.90
16767;DHT22;8501;49.926;8.404;2023-02-15T03:34:32;2.20;99.90
16767;DHT22;8501;49.926;8.404;2023-02-15T03:37:07;2.20;99.90
16767;DHT22;8501;49.926;8.404;2023-02-15T03:42:22;2.20;99.90
16767;DHT22;8501;49.926;8.404;2023-02-15T03:45:05;2.20;99.90
16767;DHT22;8501;49.926;8.404;2023-02-15T03:47:40;2.20;99.90
16767;DHT22;8501;49.926;8.404;2023-02-15T03:50:14;2.20;99.90
16767;DHT22;8501;49.926;8.404;2023-02-15T03:53:02;2.20;99.90
16767;DHT22;8501;49.926;8.404;2023-02-15T03:55:30;2.10;99.90
16767;DHT22;8501;49.926;8.404;2023-02-15T03:57:56;2.10;99.90
16767;DHT22;8501;49.926;8.404;2023-02-15T04:00:44;2.10;99.90
16767;DHT22;8501;49.926;8.404;2023-02-15T04:03:39;2.10;99.90
16767;DHT22;8501;49.926;8.404;2023-02-15T04:06:05;2.20;99.90
16767;DHT22;8501;49.926;8.404;2023-02-15T04:08:31;2.20;99.90
16767;DHT22;8501;49.926;8.404;2023-02-15T04:11:15;2.20;99.90
16767;DHT22;8501;49.926;8.404;2023-02-15T04:13:41;2.20;99.90
16767;DHT22;8501;49.926;8.404;2023-02-15T04:16:06;2.20;99.90
16767;DHT22;8501;49.926;8.404;2023-02-15T04:18:34;2.20;99.90
16767;DHT22;8501;49.926;8.404;2023-02-15T04:21:20;2.10;99.90
16767;DHT22;8501;49.926;8.404;2023-02-15T04:24:05;2.10;99.90
16767;DHT22;8501;49.926;8.404;2023-02-15T04:26:50;2.10;99.90
16767;DHT22;8501;49.926;8.404;2023-02-15T04:29:18;2.10;99.90
16767;DHT22;8501;49.926;8.404;2023-02-15T04:31:44;2.10;99.90
16767;DHT22;8501;49.926;8.404;2023-02-15T04:34:10;2.10;99.90
16767;DHT22;8501;49.926;8.404;2023-02-15T04:36:36;2.10;99.90
16767;DHT22;8501;49.926;8.404;2023-02-15T04:39:02;2.00;99.90
16767;DHT22;8501;49.926;8.404;2023-02-15T04:41:28;2.00;99.90
16767;DHT22;8501;49.926;8.404;2023-02-15T04:43:54;2.00;99.90
16767;DHT22;8501;49.926;8.404;2023-02-15T04:46:19;2.00;99.90
16767;DHT22;8501;49.926;8.404;2023-02-15T04:48:45;2.00;99.90
16767;DHT22;8501;49.926;8.404;2023-02-15T04:51:10;2.00;99.90
16767;DHT22;8501;49.926;8.404;2023-02-15T04:53:36;2.00;99.90
16767;DHT22;8501;49.926;8.404;2023-02-15T04:56:02;2.00;99.90
16767;DHT22;8501;49.926;8.404;2023-02-15T04:58:28;2.00;99.90
16767;DHT22;8501;49.926;8.404;2023-02-15T05:00:57;2.00;99.90
16767;DHT22;8501;49.926;8.404;2023-02-15T05:03:23;2.00;99.90
16767;DHT22;8501;49.926;8.404;2023-02-15T05:05:48;2.10;99.90
16767;DHT22;8501;49.926;8.404;2023-02-15T05:08:14;2.00;99.90
16767;DHT22;8501;49.926;8.404;2023-02-15T05:10:39;2.00;99.90
16767;DHT22;8501;49.926;8.404;2023-02-15T05:13:05;2.00;99.90
16767;DHT22;8501;49.926;8.404;2023-02-15T05:15:30;2.00;99.90
16767;DHT22;8501;49.926;8.404;2023-02-15T05:17:56;2.00;99.90
16767;DHT22;8501;49.926;8.404;2023-02-15T05:20:21;2.00;99.90
16767;DHT22;8501;49.926;8.404;2023-02-15T05:22:47;2.10;99.90
16767;DHT22;8501;49.926;8.404;2023-02-15T05:25:13;2.00;99.90
16767;DHT22;8501;49.926;8.404;2023-02-15T05:27:56;2.00;99.90
16767;DHT22;8501;49.926;8.404;2023-02-15T05:30:41;2.00;99.90
16767;DHT22;8501;49.926;8.404;2023-02-15T05:33:07;1.90;99.90
16767;DHT22;8501;49.926;8.404;2023-02-15T05:35:33;2.00;99.90
16767;DHT22;8501;49.926;8.404;2023-02-15T05:37:59;2.00;99.90
16767;DHT22;8501;49.926;8.404;2023-02-15T05:40:25;1.90;99.90
16767;DHT22;8501;49.926;8.404;2023-02-15T05:42:51;1.90;99.90
16767;DHT22;8501;49.926;8.404;2023-02-15T05:45:16;1.90;99.90
16767;DHT22;8501;49.926;8.404;2023-02-15T05:47:42;1.90;99.90
16767;DHT22;8501;49.926;8.404;2023-02-15T05:50:08;1.90;99.90
16767;DHT22;8501;49.926;8.404;2023-02-15T05:52:34;1.90;99.90
16767;DHT22;8501;49.926;8.404;2023-02-15T05:55:00;1.90;99.90
16767;DHT22;8501;49.926;8.404;2023-02-15T05:57:27;1.80;99.90
16767;DHT22;8501;49.926;8.404;2023-02-15T05:59:52;1.80;99.90
16767;DHT22;8501;49.926;8.404;2023-02-15T06:02:18;1.80;99.90
16767;DHT22;8501;49.926;8.404;2023-02-15T06:04:44;1.70;99.90
16767;DHT22;8501;49.926;8.404;2023-02-15T06:07:09;1.80;99.90
16767;DHT22;8501;49.926;8.404;2023-02-15T06:09:35;1.80;99.90
16767;DHT22;8501;49.926;8.404;2023-02-15T06:12:00;1.80;99.90
16767;DHT22;8501;49.926;8.404;2023-02-15T06:14:26;1.90;99.90
16767;DHT22;8501;49.926;8.404;2023-02-15T06:16:51;1.90;99.90
16767;DHT22;8501;49.926;8.404;2023-02-15T06:19:17;1.90;99.90
16767;DHT22;8501;49.926;8.404;2023-02-15T06:21:43;1.90;99.90
16767;DHT22;8501;49.926;8.404;2023-02-15T06:24:09;2.00;99.90
16767;DHT22;8501;49.926;8.404;2023-02-15T06:26:35;2.00;99.90
16767;DHT22;8501;49.926;8.404;2023-02-15T06:29:00;1.90;99.90
16767;DHT22;8501;49.926;8.404;2023-02-15T06:31:26;1.90;99.90
16767;DHT22;8501;49.926;8.404;2023-02-15T06:33:51;1.90;99.90
16767;DHT22;8501;49.926;8.404;2023-02-15T06:36:17;1.90;99.90
16767;DHT22;8501;49.926;8.404;2023-02-15T06:38:42;1.90;99.90
16767;DHT22;8501;49.926;8.404;2023-02-15T06:41:08;1.80;99.90
16767;DHT22;8501;49.926;8.404;2023-02-15T06:43:33;1.90;99.90
16767;DHT22;8501;49.926;8.404;2023-02-15T06:45:59;1.90;99.90
16767;DHT22;8501;49.926;8.404;2023-02-15T06:48:25;1.90;99.90
16767;DHT22;8501;49.926;8.404;2023-02-15T06:50:51;1.90;99.90
16767;DHT22;8501;49.926;8.404;2023-02-15T06:53:16;1.90;99.90
16767;DHT22;8501;49.926;8.404;2023-02-15T06:55:42;1.90;99.90
16767;DHT22;8501;49.926;8.404;2023-02-15T06:58:08;1.80;99.90
16767;DHT22;8501;49.926;8.404;2023-02-15T07:00:33;1.80;99.90
16767;DHT22;8501;49.926;8.404;2023-02-15T07:02:59;1.80;99.90
16767;DHT22;8501;49.926;8.404;2023-02-15T07:05:26;1.90;99.90
16767;DHT22;8501;49.926;8.404;2023-02-15T07:07:56;1.80;99.90
16767;DHT22;8501;49.926;8.404;2023-02-15T07:10:23;1.90;99.90
16767;DHT22;8501;49.926;8.404;2023-02-15T07:12:48;1.90;99.90
16767;DHT22;8501;49.926;8.404;2023-02-15T07:15:16;1.90;99.90
16767;DHT22;8501;49.926;8.404;2023-02-15T07:17:43;1.80;99.90
16767;DHT22;8501;49.926;8.404;2023-02-15T07:20:17;1.80;99.90
16767;DHT22;8501;49.926;8.404;2023-02-15T07:22:44;1.90;99.90
16767;DHT22;8501;49.926;8.404;2023-02-15T07:25:11;1.90;99.90
16767;DHT22;8501;49.926;8.404;2023-02-15T07:27:37;1.80;99.90
16767;DHT22;8501;49.926;8.404;2023-02-15T07:30:04;1.90;99.90
16767;DHT22;8501;49.926;8.404;2023-02-15T07:32:31;1.80;99.90
16767;DHT22;8501;49.926;8.404;2023-02-15T07:34:57;1.90;99.90
16767;DHT22;8501;49.926;8.404;2023-02-15T07:37:23;1.80;99.90
16767;DHT22;8501;49.926;8.404;2023-02-15T07:39:49;1.80;99.90
16767;DHT22;8501;49.926;8.404;2023-02-15T07:42:15;1.80;99.90
16767;DHT22;8501;49.926;8.404;2023-02-15T07:44:40;1.80;99.90
16767;DHT22;8501;49.926;8.404;2023-02-15T07:47:06;1.90;99.90
16767;DHT22;8501;49.926;8.404;2023-02-15T07:49:31;1.90;99.90
16767;DHT22;8501;49.926;8.404;2023-02-15T07:51:57;1.80;99.90
16767;DHT22;8501;49.926;8.404;2023-02-15T07:54:22;1.90;99.90
16767;DHT22;8501;49.926;8.404;2023-02-15T07:56:48;1.90;99.90
16767;DHT22;8501;49.926;8.404;2023-02-15T07:59:14;1.90;99.90
16767;DHT22;8501;49.926;8.404;2023-02-15T08:01:39;1.90;99.90
16767;DHT22;8501;49.926;8.404;2023-02-15T08:04:07;1.90;99.90
16767;DHT22;8501;49.926;8.404;2023-02-15T08:06:34;1.90;99.90
16767;DHT22;8501;49.926;8.404;2023-02-15T08:09:02;1.90;99.90
16767;DHT22;8501;49.926;8.404;2023-02-15T08:11:30;1.90;99.90
16767;DHT22;8501;49.926;8.404;2023-02-15T08:14:12;1.80;99.90
16767;DHT22;8501;49.926;8.404;2023-02-15T08:16:41;1.90;99.90
16767;DHT22;8501;49.926;8.404;2023-02-15T08:19:21;1.90;99.90
16767;DHT22;8501;49.926;8.404;2023-02-15T08:21:50;1.90;99.90
16767;DHT22;8501;49.926;8.404;2023-02-15T08:24:18;2.00;99.90
16767;DHT22;8501;49.926;8.404;2023-02-15T08:26:44;2.00;99.90
16767;DHT22;8501;49.926;8.404;2023-02-15T08:29:12;2.00;99.90
16767;DHT22;8501;49.926;8.404;2023-02-15T08:31:38;2.00;99.90
16767;DHT22;8501;49.926;8.404;2023-02-15T08:34:06;1.90;99.90
16767;DHT22;8501;49.926;8.404;2023-02-15T08:36:32;1.90;99.90
16767;DHT22;8501;49.926;8.404;2023-02-15T08:38:59;2.00;99.90
16767;DHT22;8501;49.926;8.404;2023-02-15T08:41:36;2.00;99.90
16767;DHT22;8501;49.926;8.404;2023-02-15T08:44:05;2.00;99.90
16767;DHT22;8501;49.926;8.404;2023-02-15T08:46:34;2.00;99.90
16767;DHT22;8501;49.926;8.404;2023-02-15T08:49:00;2.00;99.90
16767;DHT22;8501;49.926;8.404;2023-02-15T08:51:28;2.00;99.90
16767;DHT22;8501;49.926;8.404;2023-02-15T08:53:56;2.00;99.90
16767;DHT22;8501;49.926;8.404;2023-02-15T08:56:24;2.00;99.90
16767;DHT22;8501;49.926;8.404;2023-02-15T08:58:51;2.10;99.90
16767;DHT22;8501;49.926;8.404;2023-02-15T09:01:20;2.00;99.90
16767;DHT22;8501;49.926;8.404;2023-02-15T09:03:48;2.00;99.90
16767;DHT22;8501;49.926;8.404;2023-02-15T09:06:15;2.00;99.90
16767;DHT22;8501;49.926;8.404;2023-02-15T09:08:41;2.10;99.90
16767;DHT22;8501;49.926;8.404;2023-02-15T09:11:07;2.10;99.90
16767;DHT22;8501;49.926;8.404;2023-02-15T09:13:33;2.10;99.90
16767;DHT22;8501;49.926;8.404;2023-02-15T09:16:04;2.10;99.90
16767;DHT22;8501;49.926;8.404;2023-02-15T09:18:32;2.10;99.90
16767;DHT22;8501;49.926;8.404;2023-02-15T09:21:13;2.10;99.90
16767;DHT22;8501;49.926;8.404;2023-02-15T09:23:40;2.10;99.90
16767;DHT22;8501;49.926;8.404;2023-02-15T09:26:08;2.10;99.90
16767;DHT22;8501;49.926;8.404;2023-02-15T09:28:34;2.10;99.90
16767;DHT22;8501;49.926;8.404;2023-02-15T09:33:37;2.10;99.90
16767;DHT22;8501;49.926;8.404;2023-02-15T09:36:04;2.20;99.90
16767;DHT22;8501;49.926;8.404;2023-02-15T09:38:29;2.20;99.90
16767;DHT22;8501;49.926;8.404;2023-02-15T09:41:14;2.20;99.90
16767;DHT22;8501;49.926;8.404;2023-02-15T09:57:35;2.20;99.90
16767;DHT22;8501;49.926;8.404;2023-02-15T10:03:02;2.30;99.90
16767;DHT22;8501;49.926;8.404;2023-02-15T10:05:48;2.30;99.90
16767;DHT22;8501;49.926;8.404;2023-02-15T10:08:22;2.30;99.90
16767;DHT22;8501;49.926;8.404;2023-02-15T10:11:11;2.30;99.90
16767;DHT22;8501;49.926;8.404;2023-02-15T10:16:54;2.40;99.90
16767;DHT22;8501;49.926;8.404;2023-02-15T10:22:20;2.30;99.90
16767;DHT22;8501;49.926;8.404;2023-02-15T10:27:45;2.30;99.90
16767;DHT22;8501;49.926;8.404;2023-02-15T10:33:12;2.40;99.90
16767;DHT22;8501;49.926;8.404;2023-02-15T10:36:02;2.40;99.90
16767;DHT22;8501;49.926;8.404;2023-02-15T10:47:10;2.50;99.90
16767;DHT22;8501;49.926;8.404;2023-02-15T10:50:10;2.50;99.90
16767;DHT22;8501;49.926;8.404;2023-02-15T10:58:13;2.50;99.90
16767;DHT22;8501;49.926;8.404;2023-02-15T11:00:45;2.50;99.90
16767;DHT22;8501;49.926;8.404;2023-02-15T11:03:28;2.50;99.90
16767;DHT22;8501;49.926;8.404;2023-02-15T11:06:04;2.50;99.90
16767;DHT22;8501;49.926;8.404;2023-02-15T11:08:34;2.50;99.90
16767;DHT22;8501;49.926;8.404;2023-02-15T11:11:14;2.60;99.90
16767;DHT22;8501;49.926;8.404;2023-02-15T11:13:45;2.60;99.90
16767;DHT22;8501;49.926;8.404;2023-02-15T11:18:50;2.60;99.90
16767;DHT22;8501;49.926;8.404;2023-02-15T11:23:44;2.60;99.90
16767;DHT22;8501;49.926;8.404;2023-02-15T11:28:52;2.60;99.90
16767;DHT22;8501;49.926;8.404;2023-02-15T11:31:23;2.60;99.90
16767;DHT22;8501;49.926;8.404;2023-02-15T11:34:21;2.70;99.90
16767;DHT22;8501;49.926;8.404;2023-02-15T11:36:49;2.70;99.90
16767;DHT22;8501;49.926;8.404;2023-02-15T11:39:17;2.70;99.90
16767;DHT22;8501;49.926;8.404;2023-02-15T11:41:55;2.70;99.90
16767;DHT22;8501;49.926;8.404;2023-02-15T11:44:25;2.70;99.90
16767;DHT22;8501;49.926;8.404;2023-02-15T11:46:52;2.70;99.90
16767;DHT22;8501;49.926;8.404;2023-02-15T11:49:23;2.70;99.90
16767;DHT22;8501;49.926;8.404;2023-02-15T11:51:51;2.70;99.90
16767;DHT22;8501;49.926;8.404;2023-02-15T11:54:20;2.70;99.90
16767;DHT22;8501;49.926;8.404;2023-02-15T11:56:46;2.70;99.90
16767;DHT22;8501;49.926;8.404;2023-02-15T11:59:29;2.70;99.90
16767;DHT22;8501;49.926;8.404;2023-02-15T12:01:57;2.70;99.90
16767;DHT22;8501;49.926;8.404;2023-02-15T12:04:36;2.70;99.90
16767;DHT22;8501;49.926;8.404;2023-02-15T12:09:50;2.70;99.90
16767;DHT22;8501;49.926;8.404;2023-02-15T12:12:27;2.70;99.90
16767;DHT22;8501;49.926;8.404;2023-02-15T12:14:58;2.70;99.90
16767;DHT22;8501;49.926;8.404;2023-02-15T12:17:26;2.80;99.90
16767;DHT22;8501;49.926;8.404;2023-02-15T12:19:56;2.80;99.90
16767;DHT22;8501;49.926;8.404;2023-02-15T12:22:28;2.80;99.90
16767;DHT22;8501;49.926;8.404;2023-02-15T12:24:58;2.80;99.90
16767;DHT22;8501;49.926;8.404;2023-02-15T12:27:27;2.90;99.90
16767;DHT22;8501;49.926;8.404;2023-02-15T12:30:05;2.80;99.90
16767;DHT22;8501;49.926;8.404;2023-02-15T12:32:36;2.80;99.90
16767;DHT22;8501;49.926;8.404;2023-02-15T12:35:09;2.80;99.90
16767;DHT22;8501;49.926;8.404;2023-02-15T12:37:38;2.90;99.90
16767;DHT22;8501;49.926;8.404;2023-02-15T12:40:31;2.90;99.90
16767;DHT22;8501;49.926;8.404;2023-02-15T12:42:59;2.90;99.90
16767;DHT22;8501;49.926;8.404;2023-02-15T12:45:30;2.80;99.90
16767;DHT22;8501;49.926;8.404;2023-02-15T12:48:18;2.90;99.90
16767;DHT22;8501;49.926;8.404;2023-02-15T12:50:48;2.90;99.90
16767;DHT22;8501;49.926;8.404;2023-02-15T12:53:18;2.90;99.90
16767;DHT22;8501;49.926;8.404;2023-02-15T12:56:01;2.90;99.90
16767;DHT22;8501;49.926;8.404;2023-02-15T12:58:31;2.90;99.90
16767;DHT22;8501;49.926;8.404;2023-02-15T13:01:16;2.90;99.90
16767;DHT22;8501;49.926;8.404;2023-02-15T13:03:55;2.90;99.90
16767;DHT22;8501;49.926;8.404;2023-02-15T13:06:23;2.90;99.90
16767;DHT22;8501;49.926;8.404;2023-02-15T13:08:51;2.90;99.90
16767;DHT22;8501;49.926;8.404;2023-02-15T13:11:29;3.00;99.90
16767;DHT22;8501;49.926;8.404;2023-02-15T13:14:02;3.00;99.90
16767;DHT22;8501;49.926;8.404;2023-02-15T13:16:36;3.00;99.90
16767;DHT22;8501;49.926;8.404;2023-02-15T13:21:55;2.90;99.90
16767;DHT22;8501;49.926;8.404;2023-02-15T13:24:26;3.00;99.90
16767;DHT22;8501;49.926;8.404;2023-02-15T13:26:55;3.00;99.90
16767;DHT22;8501;49.926;8.404;2023-02-15T13:29:35;3.00;99.90
16767;DHT22;8501;49.926;8.404;2023-02-15T13:34:42;3.00;99.90
16767;DHT22;8501;49.926;8.404;2023-02-15T13:42:56;3.00;99.90
16767;DHT22;8501;49.926;8.404;2023-02-15T13:55:57;3.10;99.90
16767;DHT22;8501;49.926;8.404;2023-02-15T13:58:34;3.10;99.90
16767;DHT22;8501;49.926;8.404;2023-02-15T14:01:30;3.10;99.90
16767;DHT22;8501;49.926;8.404;2023-02-15T14:10:02;3.10;99.90
16767;DHT22;8501;49.926;8.404;2023-02-15T14:12:46;3.10;99.90
16767;DHT22;8501;49.926;8.404;2023-02-15T14:26:21;3.10;99.90
16767;DHT22;8501;49.926;8.404;2023-02-15T14:29:33;3.20;99.90
16767;DHT22;8501;49.926;8.404;2023-02-15T14:32:00;3.20;99.90
16767;DHT22;8501;49.926;8.404;2023-02-15T14:34:41;3.10;99.90
16767;DHT22;8501;49.926;8.404;2023-02-15T14:37:11;3.10;99.90
16767;DHT22;8501;49.926;8.404;2023-02-15T14:39:55;3.20;99.90
16767;DHT22;8501;49.926;8.404;2023-02-15T14:42:51;3.20;99.90
16767;DHT22;8501;49.926;8.404;2023-02-15T14:45:32;3.20;99.90
16767;DHT22;8501;49.926;8.404;2023-02-15T14:48:15;3.20;99.90
16767;DHT22;8501;49.926;8.404;2023-02-15T14:50:44;3.20;99.90
16767;DHT22;8501;49.926;8.404;2023-02-15T14:56:20;3.20;99.90
16767;DHT22;8501;49.926;8.404;2023-02-15T15:01:15;3.20;99.90
16767;DHT22;8501;49.926;8.404;2023-02-15T15:03:51;3.20;99.90
16767;DHT22;8501;49.926;8.404;2023-02-15T15:06:31;3.20;99.90
16767;DHT22;8501;49.926;8.404;2023-02-15T15:09:23;3.20;99.90
16767;DHT22;8501;49.926;8.404;2023-02-15T15:11:51;3.20;99.90
16767;DHT22;8501;49.926;8.404;2023-02-15T15:17:00;3.20;99.90
16767;DHT22;8501;49.926;8.404;2023-02-15T15:22:22;3.20;99.90
16767;DHT22;8501;49.926;8.404;2023-02-15T15:24:50;3.20;99.90
16767;DHT22;8501;49.926;8.404;2023-02-15T15:27:36;3.20;99.90
16767;DHT22;8501;49.926;8.404;2023-02-15T15:30:17;3.20;99.90
16767;DHT22;8501;49.926;8.404;2023-02-15T15:41:40;3.20;99.90
16767;DHT22;8501;49.926;8.404;2023-02-15T15:44:31;3.20;99.90
16767;DHT22;8501;49.926;8.404;2023-02-15T15:49:38;3.20;99.90
16767;DHT22;8501;49.926;8.404;2023-02-15T15:52:18;3.20;99.90
16767;DHT22;8501;49.926;8.404;2023-02-15T15:54:46;3.20;99.90
16767;DHT22;8501;49.926;8.404;2023-02-15T15:57:27;3.10;99.90
16767;DHT22;8501;49.926;8.404;2023-02-15T15:59:54;3.10;99.90
16767;DHT22;8501;49.926;8.404;2023-02-15T16:02:20;3.20;99.90
16767;DHT22;8501;49.926;8.404;2023-02-15T16:04:46;3.20;99.90
16767;DHT22;8501;49.926;8.404;2023-02-15T16:10:03;3.10;99.90
16767;DHT22;8501;49.926;8.404;2023-02-15T16:12:31;3.10;99.90
16767;DHT22;8501;49.926;8.404;2023-02-15T16:14:57;3.20;99.90
16767;DHT22;8501;49.926;8.404;2023-02-15T16:17:29;3.10;99.90
16767;DHT22;8501;49.926;8.404;2023-02-15T16:20:27;3.10;99.90
16767;DHT22;8501;49.926;8.404;2023-02-15T16:23:35;3.10;99.90
16767;DHT22;8501;49.926;8.404;2023-02-15T16:28:30;3.10;99.90
16767;DHT22;8501;49.926;8.404;2023-02-15T16:31:14;3.10;99.90
16767;DHT22;8501;49.926;8.404;2023-02-15T16:33:41;3.10;99.90
16767;DHT22;8501;49.926;8.404;2023-02-15T16:36:27;3.10;99.90
16767;DHT22;8501;49.926;8.404;2023-02-15T16:41:28;3.10;99.90
16767;DHT22;8501;49.926;8.404;2023-02-15T16:43:57;3.10;99.90
16767;DHT22;8501;49.926;8.404;2023-02-15T16:46:27;3.00;99.90
16767;DHT22;8501;49.926;8.404;2023-02-15T16:49:00;3.10;99.90
16767;DHT22;8501;49.926;8.404;2023-02-15T16:51:29;3.00;99.90
16767;DHT22;8501;49.926;8.404;2023-02-15T16:53:57;3.00;99.90
16767;DHT22;8501;49.926;8.404;2023-02-15T16:56:29;3.00;99.90
16767;DHT22;8501;49.926;8.404;2023-02-15T16:58:56;3.00;99.90
16767;DHT22;8501;49.926;8.404;2023-02-15T17:01:26;3.00;99.90
16767;DHT22;8501;49.926;8.404;2023-02-15T17:04:12;3.00;99.90
16767;DHT22;8501;49.926;8.404;2023-02-15T17:06:38;3.00;99.90
16767;DHT22;8501;49.926;8.404;2023-02-15T17:09:06;3.00;99.90
16767;DHT22;8501;49.926;8.404;2023-02-15T17:11:42;3.00;99.90
16767;DHT22;8501;49.926;8.404;2023-02-15T17:16:45;3.00;99.90
16767;DHT22;8501;49.926;8.404;2023-02-15T17:19:26;3.00;99.90
16767;DHT22;8501;49.926;8.404;2023-02-15T17:22:05;2.90;99.90
16767;DHT22;8501;49.926;8.404;2023-02-15T17:27:05;2.90;99.90
16767;DHT22;8501;49.926;8.404;2023-02-15T17:29:48;2.90;99.90
16767;DHT22;8501;49.926;8.404;2023-02-15T17:32:22;2.90;99.90
16767;DHT22;8501;49.926;8.404;2023-02-15T17:34:50;2.90;99.90
16767;DHT22;8501;49.926;8.404;2023-02-15T17:37:29;2.90;99.90
16767;DHT22;8501;49.926;8.404;2023-02-15T17:39:56;2.90;99.90
16767;DHT22;8501;49.926;8.404;2023-02-15T17:42:22;3.00;99.90
16767;DHT22;8501;49.926;8.404;2023-02-15T17:44:48;2.90;99.90
16767;DHT22;8501;49.926;8.404;2023-02-15T17:47:21;2.90;99.90
16767;DHT22;8501;49.926;8.404;2023-02-15T17:49:48;3.00;99.90
16767;DHT22;8501;49.926;8.404;2023-02-15T17:52:17;2.90;99.90
16767;DHT22;8501;49.926;8.404;2023-02-15T17:54:43;3.00;99.90
16767;DHT22;8501;49.926;8.404;2023-02-15T17:57:29;2.90;99.90
16767;DHT22;8501;49.926;8.404;2023-02-15T17:59:55;2.90;99.90
16767;DHT22;8501;49.926;8.404;2023-02-15T18:02:40;2.90;99.90
16767;DHT22;8501;49.926;8.404;2023-02-15T18:05:24;2.80;99.90
16767;DHT22;8501;49.926;8.404;2023-02-15T18:08:13;2.90;99.90
16767;DHT22;8501;49.926;8.404;2023-02-15T18:10:58;2.90;99.90
16767;DHT22;8501;49.926;8.404;2023-02-15T18:13:42;2.90;99.90
16767;DHT22;8501;49.926;8.404;2023-02-15T18:16:13;2.90;99.90
16767;DHT22;8501;49.926;8.404;2023-02-15T18:18:39;2.90;99.90
16767;DHT22;8501;49.926;8.404;2023-02-15T18:21:05;2.90;99.90
16767;DHT22;8501;49.926;8.404;2023-02-15T18:23:32;2.90;99.90
16767;DHT22;8501;49.926;8.404;2023-02-15T18:25:58;2.90;99.90
16767;DHT22;8501;49.926;8.404;2023-02-15T18:28:23;2.90;99.90
16767;DHT22;8501;49.926;8.404;2023-02-15T18:30:49;2.90;99.90
16767;DHT22;8501;49.926;8.404;2023-02-15T18:33:32;2.90;99.90
16767;DHT22;8501;49.926;8.404;2023-02-15T18:36:00;2.90;99.90
16767;DHT22;8501;49.926;8.404;2023-02-15T18:38:27;2.90;99.90
16767;DHT22;8501;49.926;8.404;2023-02-15T18:40:53;2.90;99.90
16767;DHT22;8501;49.926;8.404;2023-02-15T18:43:18;2.90;99.90
16767;DHT22;8501;49.926;8.404;2023-02-15T18:45:44;2.90;99.90
16767;DHT22;8501;49.926;8.404;2023-02-15T18:48:09;2.90;99.90
16767;DHT22;8501;49.926;8.404;2023-02-15T18:50:36;2.90;99.90
16767;DHT22;8501;49.926;8.404;2023-02-15T18:53:03;2.90;99.90
16767;DHT22;8501;49.926;8.404;2023-02-15T18:55:30;2.90;99.90